sensor_id;sensor_type;location;lat;lon;timestamp;P1;durP1;ratioP1;P2;durP2;ratioP2
20067;SDS011;10194;50.824;7.134;2023-04-15T00:01:22;208.10;;;186.37;;
20067;SDS011;10194;50.824;7.134;2023-04-15T00:03:50;203.63;;;181.87;;
20067;SDS011;10194;50.824;7.134;2023-04-15T00:06:17;205.90;;;184.13;;
20067;SDS011;10194;50.824;7.134;2023-04-15T00:08:43;207.50;;;185.97;;
20067;SDS011;10194;50.824;7.134;2023-04-15T00:11:10;210.43;;;188.90;;
20067;SDS011;10194;50.824;7.134;2023-04-15T00:13:36;212.83;;;191.17;;
20067;SDS011;10194;50.824;7.134;2023-04-15T00:16:03;214.43;;;192.67;;
20067;SDS011;10194;50.824;7.134;2023-04-15T00:18:31;208.50;;;187.33;;
20067;SDS011;10194;50.824;7.134;2023-04-15T00:20:57;210.60;;;189.30;;
20067;SDS011;10194;50.824;7.134;2023-04-15T00:23:23;213.83;;;192.03;;
20067;SDS011;10194;50.824;7.134;2023-04-15T00:25:49;214.00;;;192.60;;
20067;SDS011;10194;50.824;7.134;2023-04-15T00:28:15;218.83;;;196.80;;
20067;SDS011;10194;50.824;7.134;2023-04-15T00:30:42;219.43;;;197.57;;
20067;SDS011;10194;50.824;7.134;2023-04-15T00:33:08;220.90;;;199.03;;
20067;SDS011;10194;50.824;7.134;2023-04-15T00:35:34;219.37;;;198.03;;
20067;SDS011;10194;50.824;7.134;2023-04-15T00:38:04;224.43;;;202.53;;
20067;SDS011;10194;50.824;7.134;2023-04-15T00:40:34;221.33;;;199.17;;
20067;SDS011;10194;50.824;7.134;2023-04-15T00:43:00;222.20;;;200.67;;
20067;SDS011;10194;50.824;7.134;2023-04-15T00:45:26;226.87;;;205.37;;
20067;SDS011;10194;50.824;7.134;2023-04-15T00:47:53;233.13;;;211.43;;
20067;SDS011;10194;50.824;7.134;2023-04-15T00:50:19;234.30;;;211.87;;
20067;SDS011;10194;50.824;7.134;2023-04-15T00:52:45;233.73;;;211.93;;
20067;SDS011;10194;50.824;7.134;2023-04-15T00:55:11;232.10;;;210.33;;
20067;SDS011;10194;50.824;7.134;2023-04-15T00:57:38;230.63;;;209.20;;
20067;SDS011;10194;50.824;7.134;2023-04-15T01:00:04;233.27;;;211.37;;
20067;SDS011;10194;50.824;7.134;2023-04-15T01:02:35;232.67;;;210.50;;
20067;SDS011;10194;50.824;7.134;2023-04-15T01:05:01;231.80;;;209.93;;
20067;SDS011;10194;50.824;7.134;2023-04-15T01:07:28;231.77;;;210.17;;
20067;SDS011;10194;50.824;7.134;2023-04-15T01:09:55;230.83;;;208.90;;
20067;SDS011;10194;50.824;7.134;2023-04-15T01:12:21;232.83;;;210.93;;
20067;SDS011;10194;50.824;7.134;2023-04-15T01:14:49;226.93;;;205.13;;
20067;SDS011;10194;50.824;7.134;2023-04-15T01:17:15;231.13;;;209.40;;
20067;SDS011;10194;50.824;7.134;2023-04-15T01:19:41;230.63;;;208.87;;
20067;SDS011;10194;50.824;7.134;2023-04-15T01:22:07;233.50;;;211.50;;
20067;SDS011;10194;50.824;7.134;2023-04-15T01:24:34;238.33;;;216.20;;
20067;SDS011;10194;50.824;7.134;2023-04-15T01:27:01;234.40;;;212.33;;
20067;SDS011;10194;50.824;7.134;2023-04-15T01:29:29;237.87;;;215.87;;
20067;SDS011;10194;50.824;7.134;2023-04-15T01:31:57;236.73;;;214.57;;
20067;SDS011;10194;50.824;7.134;2023-04-15T01:34:23;234.80;;;212.40;;
20067;SDS011;10194;50.824;7.134;2023-04-15T01:36:48;235.90;;;213.97;;
20067;SDS011;10194;50.824;7.134;2023-04-15T01:39:15;233.80;;;211.87;;
20067;SDS011;10194;50.824;7.134;2023-04-15T01:41:40;237.03;;;214.77;;
20067;SDS011;10194;50.824;7.134;2023-04-15T01:44:06;235.53;;;213.03;;
20067;SDS011;10194;50.824;7.134;2023-04-15T01:46:32;236.53;;;213.83;;
20067;SDS011;10194;50.824;7.134;2023-04-15T01:49:01;236.70;;;214.20;;
20067;SDS011;10194;50.824;7.134;2023-04-15T01:51:26;234.83;;;212.37;;
20067;SDS011;10194;50.824;7.134;2023-04-15T01:53:52;240.43;;;217.60;;
20067;SDS011;10194;50.824;7.134;2023-04-15T01:56:20;236.30;;;213.83;;
20067;SDS011;10194;50.824;7.134;2023-04-15T01:58:48;237.47;;;214.93;;
20067;SDS011;10194;50.824;7.134;2023-04-15T02:01:14;232.77;;;210.47;;
20067;SDS011;10194;50.824;7.134;2023-04-15T02:03:40;233.30;;;211.13;;
20067;SDS011;10194;50.824;7.134;2023-04-15T02:06:06;237.33;;;214.70;;
20067;SDS011;10194;50.824;7.134;2023-04-15T02:08:32;245.30;;;222.40;;
20067;SDS011;10194;50.824;7.134;2023-04-15T02:10:58;246.90;;;223.13;;
20067;SDS011;10194;50.824;7.134;2023-04-15T02:13:25;250.97;;;228.10;;
20067;SDS011;10194;50.824;7.134;2023-04-15T02:15:51;246.07;;;222.90;;
20067;SDS011;10194;50.824;7.134;2023-04-15T02:18:18;246.90;;;223.93;;
20067;SDS011;10194;50.824;7.134;2023-04-15T02:20:44;242.17;;;219.53;;
20067;SDS011;10194;50.824;7.134;2023-04-15T02:23:11;245.40;;;222.73;;
20067;SDS011;10194;50.824;7.134;2023-04-15T02:25:37;240.37;;;217.93;;
20067;SDS011;10194;50.824;7.134;2023-04-15T02:28:06;240.17;;;217.70;;
20067;SDS011;10194;50.824;7.134;2023-04-15T02:30:32;242.57;;;219.80;;
20067;SDS011;10194;50.824;7.134;2023-04-15T02:32:58;237.20;;;215.07;;
20067;SDS011;10194;50.824;7.134;2023-04-15T02:35:25;234.20;;;212.10;;
20067;SDS011;10194;50.824;7.134;2023-04-15T02:37:51;237.90;;;215.00;;
20067;SDS011;10194;50.824;7.134;2023-04-15T02:40:17;239.80;;;217.43;;
20067;SDS011;10194;50.824;7.134;2023-04-15T02:42:43;236.80;;;214.00;;
20067;SDS011;10194;50.824;7.134;2023-04-15T02:45:09;242.37;;;219.47;;
20067;SDS011;10194;50.824;7.134;2023-04-15T02:47:38;242.33;;;219.17;;
20067;SDS011;10194;50.824;7.134;2023-04-15T02:50:07;252.67;;;228.93;;
20067;SDS011;10194;50.824;7.134;2023-04-15T02:52:36;240.27;;;217.37;;
20067;SDS011;10194;50.824;7.134;2023-04-15T02:55:05;248.20;;;224.87;;
20067;SDS011;10194;50.824;7.134;2023-04-15T02:57:32;244.43;;;221.37;;
20067;SDS011;10194;50.824;7.134;2023-04-15T03:00:00;247.03;;;223.67;;
20067;SDS011;10194;50.824;7.134;2023-04-15T03:02:26;248.47;;;225.67;;
20067;SDS011;10194;50.824;7.134;2023-04-15T03:04:52;240.63;;;218.07;;
20067;SDS011;10194;50.824;7.134;2023-04-15T03:07:19;240.63;;;217.93;;
20067;SDS011;10194;50.824;7.134;2023-04-15T03:09:45;242.77;;;220.20;;
20067;SDS011;10194;50.824;7.134;2023-04-15T03:12:11;246.07;;;222.90;;
20067;SDS011;10194;50.824;7.134;2023-04-15T03:14:37;243.43;;;221.30;;
20067;SDS011;10194;50.824;7.134;2023-04-15T03:17:03;243.07;;;220.30;;
20067;SDS011;10194;50.824;7.134;2023-04-15T03:19:28;243.27;;;220.80;;
20067;SDS011;10194;50.824;7.134;2023-04-15T03:21:54;241.90;;;219.27;;
20067;SDS011;10194;50.824;7.134;2023-04-15T03:24:20;243.60;;;220.87;;
20067;SDS011;10194;50.824;7.134;2023-04-15T03:26:46;243.87;;;220.73;;
20067;SDS011;10194;50.824;7.134;2023-04-15T03:29:11;236.83;;;214.33;;
20067;SDS011;10194;50.824;7.134;2023-04-15T03:31:37;241.63;;;219.00;;
20067;SDS011;10194;50.824;7.134;2023-04-15T03:34:03;238.67;;;215.93;;
20067;SDS011;10194;50.824;7.134;2023-04-15T03:36:29;242.97;;;220.47;;
20067;SDS011;10194;50.824;7.134;2023-04-15T03:38:59;240.33;;;218.30;;
20067;SDS011;10194;50.824;7.134;2023-04-15T03:41:26;239.40;;;217.60;;
20067;SDS011;10194;50.824;7.134;2023-04-15T03:43:52;239.87;;;217.50;;
20067;SDS011;10194;50.824;7.134;2023-04-15T03:46:18;240.13;;;217.90;;
20067;SDS011;10194;50.824;7.134;2023-04-15T03:48:44;240.87;;;218.13;;
20067;SDS011;10194;50.824;7.134;2023-04-15T03:51:11;240.00;;;217.83;;
20067;SDS011;10194;50.824;7.134;2023-04-15T03:53:37;241.80;;;219.63;;
20067;SDS011;10194;50.824;7.134;2023-04-15T03:56:02;238.30;;;215.83;;
20067;SDS011;10194;50.824;7.134;2023-04-15T03:58:28;243.07;;;221.00;;
20067;SDS011;10194;50.824;7.134;2023-04-15T04:00:54;240.03;;;217.57;;
20067;SDS011;10194;50.824;7.134;2023-04-15T04:03:20;244.63;;;222.30;;
20067;SDS011;10194;50.824;7.134;2023-04-15T04:05:46;243.37;;;220.73;;
20067;SDS011;10194;50.824;7.134;2023-04-15T04:08:11;247.47;;;225.23;;
20067;SDS011;10194;50.824;7.134;2023-04-15T04:10:38;246.50;;;224.33;;
20067;SDS011;10194;50.824;7.134;2023-04-15T04:13:04;249.47;;;226.37;;
20067;SDS011;10194;50.824;7.134;2023-04-15T04:15:30;241.40;;;219.37;;
20067;SDS011;10194;50.824;7.134;2023-04-15T04:17:55;248.50;;;226.00;;
20067;SDS011;10194;50.824;7.134;2023-04-15T04:20:21;247.80;;;225.43;;
20067;SDS011;10194;50.824;7.134;2023-04-15T04:22:47;247.67;;;225.40;;
20067;SDS011;10194;50.824;7.134;2023-04-15T04:25:14;251.70;;;229.63;;
20067;SDS011;10194;50.824;7.134;2023-04-15T04:27:40;254.70;;;232.47;;
20067;SDS011;10194;50.824;7.134;2023-04-15T04:30:06;253.80;;;231.13;;
20067;SDS011;10194;50.824;7.134;2023-04-15T04:32:32;251.10;;;228.53;;
20067;SDS011;10194;50.824;7.134;2023-04-15T04:34:58;253.77;;;231.23;;
20067;SDS011;10194;50.824;7.134;2023-04-15T04:37:24;247.90;;;225.83;;
20067;SDS011;10194;50.824;7.134;2023-04-15T04:39:50;254.43;;;232.30;;
20067;SDS011;10194;50.824;7.134;2023-04-15T04:42:15;256.53;;;234.40;;
20067;SDS011;10194;50.824;7.134;2023-04-15T04:44:41;258.07;;;235.23;;
20067;SDS011;10194;50.824;7.134;2023-04-15T04:47:07;257.33;;;235.07;;
20067;SDS011;10194;50.824;7.134;2023-04-15T04:49:32;269.57;;;247.77;;
20067;SDS011;10194;50.824;7.134;2023-04-15T04:51:58;268.43;;;246.43;;
20067;SDS011;10194;50.824;7.134;2023-04-15T04:54:24;267.27;;;245.13;;
20067;SDS011;10194;50.824;7.134;2023-04-15T04:56:51;264.23;;;242.43;;
20067;SDS011;10194;50.824;7.134;2023-04-15T04:59:17;260.67;;;238.03;;
20067;SDS011;10194;50.824;7.134;2023-04-15T05:01:43;259.57;;;237.50;;
20067;SDS011;10194;50.824;7.134;2023-04-15T05:04:09;257.83;;;235.27;;
20067;SDS011;10194;50.824;7.134;2023-04-15T05:06:34;257.07;;;234.77;;
20067;SDS011;10194;50.824;7.134;2023-04-15T05:09:01;259.37;;;236.57;;
20067;SDS011;10194;50.824;7.134;2023-04-15T05:11:27;254.37;;;231.70;;
20067;SDS011;10194;50.824;7.134;2023-04-15T05:13:53;254.03;;;230.80;;
20067;SDS011;10194;50.824;7.134;2023-04-15T05:16:19;249.17;;;226.87;;
20067;SDS011;10194;50.824;7.134;2023-04-15T05:18:46;246.90;;;224.17;;
20067;SDS011;10194;50.824;7.134;2023-04-15T05:21:11;245.13;;;222.60;;
20067;SDS011;10194;50.824;7.134;2023-04-15T05:23:37;244.07;;;221.83;;
20067;SDS011;10194;50.824;7.134;2023-04-15T05:26:04;243.77;;;221.37;;
20067;SDS011;10194;50.824;7.134;2023-04-15T05:28:29;243.83;;;221.63;;
20067;SDS011;10194;50.824;7.134;2023-04-15T05:30:55;238.80;;;216.20;;
20067;SDS011;10194;50.824;7.134;2023-04-15T05:33:21;239.87;;;217.60;;
20067;SDS011;10194;50.824;7.134;2023-04-15T05:35:47;240.27;;;217.97;;
20067;SDS011;10194;50.824;7.134;2023-04-15T05:38:13;242.43;;;220.03;;
20067;SDS011;10194;50.824;7.134;2023-04-15T05:40:39;242.80;;;220.43;;
20067;SDS011;10194;50.824;7.134;2023-04-15T05:43:05;243.73;;;221.43;;
20067;SDS011;10194;50.824;7.134;2023-04-15T05:45:30;243.97;;;221.97;;
20067;SDS011;10194;50.824;7.134;2023-04-15T05:47:56;243.53;;;221.07;;
20067;SDS011;10194;50.824;7.134;2023-04-15T05:50:22;246.63;;;224.17;;
20067;SDS011;10194;50.824;7.134;2023-04-15T05:52:48;250.80;;;227.73;;
20067;SDS011;10194;50.824;7.134;2023-04-15T05:55:14;248.80;;;226.37;;
20067;SDS011;10194;50.824;7.134;2023-04-15T05:57:40;253.07;;;230.20;;
20067;SDS011;10194;50.824;7.134;2023-04-15T06:00:05;247.80;;;225.00;;
20067;SDS011;10194;50.824;7.134;2023-04-15T06:02:32;247.97;;;225.30;;
20067;SDS011;10194;50.824;7.134;2023-04-15T06:04:58;235.97;;;213.20;;
20067;SDS011;10194;50.824;7.134;2023-04-15T06:07:24;232.03;;;209.27;;
20067;SDS011;10194;50.824;7.134;2023-04-15T06:09:50;210.27;;;187.73;;
20067;SDS011;10194;50.824;7.134;2023-04-15T06:12:16;206.17;;;177.03;;
20067;SDS011;10194;50.824;7.134;2023-04-15T06:14:42;204.97;;;171.63;;
20067;SDS011;10194;50.824;7.134;2023-04-15T06:17:07;202.87;;;156.87;;
20067;SDS011;10194;50.824;7.134;2023-04-15T06:19:34;200.00;;;149.67;;
20067;SDS011;10194;50.824;7.134;2023-04-15T06:22:01;210.60;;;165.80;;
20067;SDS011;10194;50.824;7.134;2023-04-15T06:24:27;232.00;;;208.17;;
20067;SDS011;10194;50.824;7.134;2023-04-15T06:26:53;273.03;;;247.93;;
20067;SDS011;10194;50.824;7.134;2023-04-15T06:29:19;295.37;;;269.63;;
20067;SDS011;10194;50.824;7.134;2023-04-15T06:31:46;268.93;;;244.23;;
20067;SDS011;10194;50.824;7.134;2023-04-15T06:34:13;240.43;;;216.70;;
20067;SDS011;10194;50.824;7.134;2023-04-15T06:36:38;216.17;;;193.83;;
20067;SDS011;10194;50.824;7.134;2023-04-15T06:39:04;194.67;;;172.07;;
20067;SDS011;10194;50.824;7.134;2023-04-15T06:41:30;185.27;;;153.97;;
20067;SDS011;10194;50.824;7.134;2023-04-15T06:43:56;179.40;;;147.63;;
20067;SDS011;10194;50.824;7.134;2023-04-15T06:46:22;178.13;;;140.93;;
20067;SDS011;10194;50.824;7.134;2023-04-15T06:48:47;176.47;;;142.40;;
20067;SDS011;10194;50.824;7.134;2023-04-15T06:51:13;172.50;;;137.50;;
20067;SDS011;10194;50.824;7.134;2023-04-15T06:53:39;171.77;;;134.03;;
20067;SDS011;10194;50.824;7.134;2023-04-15T06:56:09;171.33;;;127.53;;
20067;SDS011;10194;50.824;7.134;2023-04-15T06:58:35;166.93;;;124.73;;
20067;SDS011;10194;50.824;7.134;2023-04-15T07:01:00;166.77;;;123.97;;
20067;SDS011;10194;50.824;7.134;2023-04-15T07:03:27;165.67;;;120.63;;
20067;SDS011;10194;50.824;7.134;2023-04-15T07:05:53;166.53;;;120.30;;
20067;SDS011;10194;50.824;7.134;2023-04-15T07:08:19;159.87;;;115.27;;
20067;SDS011;10194;50.824;7.134;2023-04-15T07:10:48;160.00;;;114.17;;
20067;SDS011;10194;50.824;7.134;2023-04-15T07:13:14;163.93;;;117.37;;
20067;SDS011;10194;50.824;7.134;2023-04-15T07:15:40;153.20;;;103.80;;
20067;SDS011;10194;50.824;7.134;2023-04-15T07:18:05;152.23;;;99.77;;
20067;SDS011;10194;50.824;7.134;2023-04-15T07:20:31;148.13;;;92.10;;
20067;SDS011;10194;50.824;7.134;2023-04-15T07:22:57;146.50;;;83.63;;
20067;SDS011;10194;50.824;7.134;2023-04-15T07:25:23;142.50;;;81.63;;
20067;SDS011;10194;50.824;7.134;2023-04-15T07:27:48;143.17;;;81.03;;
20067;SDS011;10194;50.824;7.134;2023-04-15T07:30:14;143.63;;;81.73;;
20067;SDS011;10194;50.824;7.134;2023-04-15T07:32:41;143.03;;;79.87;;
20067;SDS011;10194;50.824;7.134;2023-04-15T07:35:07;142.63;;;78.90;;
20067;SDS011;10194;50.824;7.134;2023-04-15T07:37:33;143.03;;;78.87;;
20067;SDS011;10194;50.824;7.134;2023-04-15T07:40:00;145.70;;;78.67;;
20067;SDS011;10194;50.824;7.134;2023-04-15T07:42:26;139.23;;;76.43;;
20067;SDS011;10194;50.824;7.134;2023-04-15T07:44:53;140.80;;;74.53;;
20067;SDS011;10194;50.824;7.134;2023-04-15T07:47:19;141.37;;;74.93;;
20067;SDS011;10194;50.824;7.134;2023-04-15T07:49:45;139.43;;;73.13;;
20067;SDS011;10194;50.824;7.134;2023-04-15T07:52:11;138.07;;;71.57;;
20067;SDS011;10194;50.824;7.134;2023-04-15T07:54:37;141.40;;;71.83;;
20067;SDS011;10194;50.824;7.134;2023-04-15T07:57:03;137.53;;;70.93;;
20067;SDS011;10194;50.824;7.134;2023-04-15T07:59:29;139.03;;;71.53;;
20067;SDS011;10194;50.824;7.134;2023-04-15T08:01:57;136.53;;;70.83;;
20067;SDS011;10194;50.824;7.134;2023-04-15T08:04:23;136.97;;;70.87;;
20067;SDS011;10194;50.824;7.134;2023-04-15T08:06:49;135.37;;;69.90;;
20067;SDS011;10194;50.824;7.134;2023-04-15T08:09:16;139.30;;;71.17;;
20067;SDS011;10194;50.824;7.134;2023-04-15T08:11:42;136.47;;;70.93;;
20067;SDS011;10194;50.824;7.134;2023-04-15T08:14:07;136.77;;;70.43;;
20067;SDS011;10194;50.824;7.134;2023-04-15T08:16:33;135.60;;;69.87;;
20067;SDS011;10194;50.824;7.134;2023-04-15T08:18:59;134.70;;;68.80;;
20067;SDS011;10194;50.824;7.134;2023-04-15T08:21:25;136.30;;;69.17;;
20067;SDS011;10194;50.824;7.134;2023-04-15T08:23:51;134.03;;;68.37;;
20067;SDS011;10194;50.824;7.134;2023-04-15T08:26:19;135.73;;;68.60;;
20067;SDS011;10194;50.824;7.134;2023-04-15T08:28:45;139.10;;;71.30;;
20067;SDS011;10194;50.824;7.134;2023-04-15T08:31:14;135.10;;;71.60;;
20067;SDS011;10194;50.824;7.134;2023-04-15T08:33:42;137.33;;;73.73;;
20067;SDS011;10194;50.824;7.134;2023-04-15T08:36:08;140.10;;;77.20;;
20067;SDS011;10194;50.824;7.134;2023-04-15T08:38:34;144.67;;;86.43;;
20067;SDS011;10194;50.824;7.134;2023-04-15T08:41:02;141.67;;;87.77;;
20067;SDS011;10194;50.824;7.134;2023-04-15T08:43:33;145.80;;;88.73;;
20067;SDS011;10194;50.824;7.134;2023-04-15T08:45:59;146.13;;;84.73;;
20067;SDS011;10194;50.824;7.134;2023-04-15T08:48:27;143.07;;;89.03;;
20067;SDS011;10194;50.824;7.134;2023-04-15T08:50:54;143.93;;;87.00;;
20067;SDS011;10194;50.824;7.134;2023-04-15T08:53:20;145.03;;;90.30;;
20067;SDS011;10194;50.824;7.134;2023-04-15T08:55:49;142.63;;;86.53;;
20067;SDS011;10194;50.824;7.134;2023-04-15T08:58:16;138.73;;;82.17;;
20067;SDS011;10194;50.824;7.134;2023-04-15T09:00:44;136.60;;;78.97;;
20067;SDS011;10194;50.824;7.134;2023-04-15T09:03:09;137.43;;;76.27;;
20067;SDS011;10194;50.824;7.134;2023-04-15T09:05:36;135.27;;;75.57;;
20067;SDS011;10194;50.824;7.134;2023-04-15T09:08:02;139.43;;;80.03;;
20067;SDS011;10194;50.824;7.134;2023-04-15T09:10:30;137.20;;;78.63;;
20067;SDS011;10194;50.824;7.134;2023-04-15T09:12:57;143.23;;;85.97;;
20067;SDS011;10194;50.824;7.134;2023-04-15T09:15:26;138.47;;;80.10;;
20067;SDS011;10194;50.824;7.134;2023-04-15T09:17:53;140.63;;;76.53;;
20067;SDS011;10194;50.824;7.134;2023-04-15T09:20:20;137.90;;;73.37;;
20067;SDS011;10194;50.824;7.134;2023-04-15T09:22:48;136.87;;;72.63;;
20067;SDS011;10194;50.824;7.134;2023-04-15T09:27:49;136.03;;;73.87;;
20067;SDS011;10194;50.824;7.134;2023-04-15T09:30:17;136.83;;;75.17;;
20067;SDS011;10194;50.824;7.134;2023-04-15T09:32:58;134.63;;;72.30;;
20067;SDS011;10194;50.824;7.134;2023-04-15T09:35:35;135.73;;;74.87;;
20067;SDS011;10194;50.824;7.134;2023-04-15T09:38:07;134.27;;;73.20;;
20067;SDS011;10194;50.824;7.134;2023-04-15T09:40:35;133.73;;;71.57;;
20067;SDS011;10194;50.824;7.134;2023-04-15T09:43:07;133.40;;;69.77;;
20067;SDS011;10194;50.824;7.134;2023-04-15T09:45:36;136.77;;;72.70;;
20067;SDS011;10194;50.824;7.134;2023-04-15T09:48:44;135.00;;;69.23;;
20067;SDS011;10194;50.824;7.134;2023-04-15T09:50:52;131.30;;;68.23;;
20067;SDS011;10194;50.824;7.134;2023-04-15T09:53:19;134.73;;;69.73;;
20067;SDS011;10194;50.824;7.134;2023-04-15T09:55:50;132.60;;;68.60;;
20067;SDS011;10194;50.824;7.134;2023-04-15T10:00:57;136.00;;;72.33;;
20067;SDS011;10194;50.824;7.134;2023-04-15T10:03:29;134.67;;;70.83;;
20067;SDS011;10194;50.824;7.134;2023-04-15T10:06:01;138.80;;;72.13;;
20067;SDS011;10194;50.824;7.134;2023-04-15T10:08:28;136.00;;;71.30;;
20067;SDS011;10194;50.824;7.134;2023-04-15T10:10:57;137.57;;;74.40;;
20067;SDS011;10194;50.824;7.134;2023-04-15T10:13:24;136.80;;;73.20;;
20067;SDS011;10194;50.824;7.134;2023-04-15T10:16:06;137.57;;;71.73;;
20067;SDS011;10194;50.824;7.134;2023-04-15T10:18:39;136.20;;;70.70;;
20067;SDS011;10194;50.824;7.134;2023-04-15T10:21:09;134.03;;;70.93;;
20067;SDS011;10194;50.824;7.134;2023-04-15T10:23:34;132.13;;;69.30;;
20067;SDS011;10194;50.824;7.134;2023-04-15T10:26:01;134.43;;;70.67;;
20067;SDS011;10194;50.824;7.134;2023-04-15T10:28:29;133.47;;;70.00;;
20067;SDS011;10194;50.824;7.134;2023-04-15T10:30:55;134.00;;;70.07;;
20067;SDS011;10194;50.824;7.134;2023-04-15T10:33:22;132.50;;;68.37;;
20067;SDS011;10194;50.824;7.134;2023-04-15T10:35:49;132.17;;;68.70;;
20067;SDS011;10194;50.824;7.134;2023-04-15T10:38:33;133.90;;;68.80;;
20067;SDS011;10194;50.824;7.134;2023-04-15T10:43:44;134.73;;;69.03;;
20067;SDS011;10194;50.824;7.134;2023-04-15T10:46:26;135.60;;;69.10;;
20067;SDS011;10194;50.824;7.134;2023-04-15T10:49:45;134.37;;;69.23;;
20067;SDS011;10194;50.824;7.134;2023-04-15T10:51:58;134.27;;;69.70;;
20067;SDS011;10194;50.824;7.134;2023-04-15T10:59:30;135.07;;;69.93;;
20067;SDS011;10194;50.824;7.134;2023-04-15T11:08:09;132.67;;;69.30;;
20067;SDS011;10194;50.824;7.134;2023-04-15T11:13:03;135.57;;;71.10;;
20067;SDS011;10194;50.824;7.134;2023-04-15T11:15:36;133.90;;;70.20;;
20067;SDS011;10194;50.824;7.134;2023-04-15T11:18:08;135.47;;;69.90;;
20067;SDS011;10194;50.824;7.134;2023-04-15T11:20:37;134.10;;;70.17;;
20067;SDS011;10194;50.824;7.134;2023-04-15T11:23:05;137.47;;;71.67;;
20067;SDS011;10194;50.824;7.134;2023-04-15T11:25:32;134.93;;;70.30;;
20067;SDS011;10194;50.824;7.134;2023-04-15T11:28:00;133.53;;;69.90;;
20067;SDS011;10194;50.824;7.134;2023-04-15T11:30:27;136.10;;;71.80;;
20067;SDS011;10194;50.824;7.134;2023-04-15T11:32:57;134.77;;;71.57;;
20067;SDS011;10194;50.824;7.134;2023-04-15T11:35:26;135.30;;;72.20;;
20067;SDS011;10194;50.824;7.134;2023-04-15T11:37:52;133.03;;;69.77;;
20067;SDS011;10194;50.824;7.134;2023-04-15T11:40:23;133.53;;;72.37;;
20067;SDS011;10194;50.824;7.134;2023-04-15T11:43:13;134.73;;;71.27;;
20067;SDS011;10194;50.824;7.134;2023-04-15T11:48:27;133.37;;;70.73;;
20067;SDS011;10194;50.824;7.134;2023-04-15T11:51:00;134.03;;;70.00;;
20067;SDS011;10194;50.824;7.134;2023-04-15T11:53:37;135.83;;;71.80;;
20067;SDS011;10194;50.824;7.134;2023-04-15T11:56:17;134.03;;;71.37;;
20067;SDS011;10194;50.824;7.134;2023-04-15T11:58:48;134.87;;;71.60;;
20067;SDS011;10194;50.824;7.134;2023-04-15T12:01:35;134.60;;;72.33;;
20067;SDS011;10194;50.824;7.134;2023-04-15T12:04:13;138.73;;;73.00;;
20067;SDS011;10194;50.824;7.134;2023-04-15T12:06:47;133.37;;;70.20;;
20067;SDS011;10194;50.824;7.134;2023-04-15T12:09:16;133.67;;;70.20;;
20067;SDS011;10194;50.824;7.134;2023-04-15T12:11:44;133.90;;;69.70;;
20067;SDS011;10194;50.824;7.134;2023-04-15T12:14:25;139.17;;;71.40;;
20067;SDS011;10194;50.824;7.134;2023-04-15T12:16:56;134.77;;;70.03;;
20067;SDS011;10194;50.824;7.134;2023-04-15T12:19:26;132.83;;;68.93;;
20067;SDS011;10194;50.824;7.134;2023-04-15T12:22:11;132.17;;;69.23;;
20067;SDS011;10194;50.824;7.134;2023-04-15T12:24:40;132.60;;;71.53;;
20067;SDS011;10194;50.824;7.134;2023-04-15T12:27:13;133.30;;;74.27;;
20067;SDS011;10194;50.824;7.134;2023-04-15T12:29:40;134.00;;;74.23;;
20067;SDS011;10194;50.824;7.134;2023-04-15T12:32:12;137.60;;;77.90;;
20067;SDS011;10194;50.824;7.134;2023-04-15T12:34:49;138.53;;;81.73;;
20067;SDS011;10194;50.824;7.134;2023-04-15T12:37:16;143.50;;;81.97;;
20067;SDS011;10194;50.824;7.134;2023-04-15T12:39:46;138.53;;;79.40;;
20067;SDS011;10194;50.824;7.134;2023-04-15T12:42:13;139.43;;;81.83;;
20067;SDS011;10194;50.824;7.134;2023-04-15T12:44:41;139.50;;;86.20;;
20067;SDS011;10194;50.824;7.134;2023-04-15T12:47:07;141.60;;;87.17;;
20067;SDS011;10194;50.824;7.134;2023-04-15T12:49:34;138.67;;;84.70;;
20067;SDS011;10194;50.824;7.134;2023-04-15T12:52:00;142.57;;;85.67;;
20067;SDS011;10194;50.824;7.134;2023-04-15T12:54:27;143.30;;;88.70;;
20067;SDS011;10194;50.824;7.134;2023-04-15T12:56:54;142.03;;;87.97;;
20067;SDS011;10194;50.824;7.134;2023-04-15T12:59:21;141.73;;;88.30;;
20067;SDS011;10194;50.824;7.134;2023-04-15T13:01:48;145.87;;;94.63;;
20067;SDS011;10194;50.824;7.134;2023-04-15T13:04:15;142.50;;;86.40;;
20067;SDS011;10194;50.824;7.134;2023-04-15T13:06:41;138.80;;;81.93;;
20067;SDS011;10194;50.824;7.134;2023-04-15T13:09:07;143.63;;;88.17;;
20067;SDS011;10194;50.824;7.134;2023-04-15T13:11:33;142.77;;;90.73;;
20067;SDS011;10194;50.824;7.134;2023-04-15T13:14:00;146.77;;;93.37;;
20067;SDS011;10194;50.824;7.134;2023-04-15T13:16:29;150.70;;;99.50;;
20067;SDS011;10194;50.824;7.134;2023-04-15T13:18:56;151.13;;;102.40;;
20067;SDS011;10194;50.824;7.134;2023-04-15T13:21:23;150.67;;;102.57;;
20067;SDS011;10194;50.824;7.134;2023-04-15T13:23:49;145.43;;;91.20;;
20067;SDS011;10194;50.824;7.134;2023-04-15T13:26:16;147.47;;;96.93;;
20067;SDS011;10194;50.824;7.134;2023-04-15T13:28:42;142.70;;;88.33;;
20067;SDS011;10194;50.824;7.134;2023-04-15T13:31:08;146.90;;;95.50;;
20067;SDS011;10194;50.824;7.134;2023-04-15T13:33:34;148.60;;;100.17;;
20067;SDS011;10194;50.824;7.134;2023-04-15T13:36:00;151.77;;;98.83;;
20067;SDS011;10194;50.824;7.134;2023-04-15T13:38:26;146.23;;;93.73;;
20067;SDS011;10194;50.824;7.134;2023-04-15T13:40:52;146.90;;;94.23;;
20067;SDS011;10194;50.824;7.134;2023-04-15T13:43:17;144.20;;;90.13;;
20067;SDS011;10194;50.824;7.134;2023-04-15T13:45:43;144.73;;;88.53;;
20067;SDS011;10194;50.824;7.134;2023-04-15T13:48:10;142.43;;;84.23;;
20067;SDS011;10194;50.824;7.134;2023-04-15T13:50:36;147.77;;;92.00;;
20067;SDS011;10194;50.824;7.134;2023-04-15T13:53:02;147.77;;;90.60;;
20067;SDS011;10194;50.824;7.134;2023-04-15T13:55:27;147.80;;;93.60;;
20067;SDS011;10194;50.824;7.134;2023-04-15T13:57:53;149.00;;;98.73;;
20067;SDS011;10194;50.824;7.134;2023-04-15T14:00:19;154.97;;;103.17;;
20067;SDS011;10194;50.824;7.134;2023-04-15T14:02:45;155.97;;;103.83;;
20067;SDS011;10194;50.824;7.134;2023-04-15T14:05:10;154.33;;;104.67;;
20067;SDS011;10194;50.824;7.134;2023-04-15T14:07:36;154.20;;;106.77;;
20067;SDS011;10194;50.824;7.134;2023-04-15T14:10:02;152.00;;;98.27;;
20067;SDS011;10194;50.824;7.134;2023-04-15T14:12:28;153.90;;;105.20;;
20067;SDS011;10194;50.824;7.134;2023-04-15T14:14:54;155.57;;;101.10;;
20067;SDS011;10194;50.824;7.134;2023-04-15T14:17:20;156.00;;;108.70;;
20067;SDS011;10194;50.824;7.134;2023-04-15T14:19:46;155.80;;;105.60;;
20067;SDS011;10194;50.824;7.134;2023-04-15T14:22:12;154.67;;;107.70;;
20067;SDS011;10194;50.824;7.134;2023-04-15T14:24:37;165.53;;;118.93;;
20067;SDS011;10194;50.824;7.134;2023-04-15T14:27:03;156.73;;;110.17;;